KSRB 
Upper Cumberland Regional Airport
Sparta, Tennessee, United States 
ICAOStatusUseage
KSRBOperationalPublic
LatitudeLongitude
36° 3' 24" N85° 31' 48" W
36.056739-85.530108
Local Time (DST-5)UTC (GMT-6)
04-23-2014 10:16 pm04-24-2014 03:16
Sunrise-SunsetLocalUTC
Begin Civil Twilight05:29 am10:29
Sunrise05:56 am10:56
Sunset07:24 pm00:24
End Civil Twilight07:51 pm00:51

Current Weather

METARObservedFlight Conditions

KSRB 240255Z AUTO 00000KT 10SM CLR 09/02 A3002

Thu, Apr 24, 2014 @ 02:55 UTC(Z)

(21 Minutes ago)

VFR

(Visual Flight Rules)

WindVisibilityCloudsConditions
Calm
10 statute miles
  • Clear skies
  • No significant weather
TemperaturesReadingsPrecipitation
Current Temp9°C (48°F)
Dewpoint2°C (36°F)
Humidity62%
Altimeter30.02"Hg
Sea Level Pressure1017mb
None Recorded

Additional weather within a 50nm radius of KSRB

Location METAR
KCSV

22.5nm E (106°)

23 minutes ago
KMQY

48.1nm W (267°)

20 minutes ago
VFR VFR    MVFR MVFR    IFR IFR    LIFR LIFR    Unknown Unknown

Previous 24 hour Weather Graphs

  Loading...

CheckWX.com is intended as a tool to help pilots better visualize weather data.   It is not intended as a substitute for an official weather briefing obtained from a Flight Service Station.
CheckWX.com does not meet the FAA requirements for an official pre-flight weather briefing.   Therefore, it's important that pilots still call and obtain an official FSS pre-flight weather briefing.